createdAt,value
2024-01-26T00:01:36.218Z,21.50
2024-01-26T00:03:41.156Z,20.73
2024-01-26T00:05:45.507Z,20.17
2024-01-26T00:07:48.554Z,19.93
2024-01-26T00:09:51.467Z,20.97
2024-01-26T00:11:54.888Z,19.83
2024-01-26T00:13:57.806Z,20.87
2024-01-26T00:16:00.787Z,21.00
2024-01-26T00:18:04.546Z,20.00
2024-01-26T00:20:12.213Z,21.20
2024-01-26T00:22:17.165Z,19.67
2024-01-26T00:24:24.356Z,20.17
2024-01-26T00:26:29.440Z,18.93
2024-01-26T00:28:32.570Z,20.83
2024-01-26T00:30:36.876Z,18.93
2024-01-26T00:32:39.800Z,19.33
2024-01-26T00:34:43.184Z,19.27
2024-01-26T00:36:46.210Z,21.33
2024-01-26T00:38:50.840Z,19.73
2024-01-26T00:40:53.707Z,20.37
2024-01-26T00:42:56.651Z,20.30
2024-01-26T00:45:01.212Z,20.30
2024-01-26T00:47:05.014Z,20.83
2024-01-26T00:49:07.621Z,21.00
2024-01-26T00:51:10.848Z,22.17
2024-01-26T00:53:13.432Z,21.73
2024-01-26T00:55:18.192Z,22.53
2024-01-26T00:57:21.386Z,22.83
2024-01-26T00:59:25.133Z,23.47
2024-01-26T01:01:28.776Z,23.17
2024-01-26T01:03:34.090Z,24.07
2024-01-26T01:05:36.459Z,23.97
2024-01-26T01:07:39.959Z,24.90
2024-01-26T01:09:43.048Z,27.03
2024-01-26T01:11:47.859Z,28.47
2024-01-26T01:13:52.293Z,27.10
2024-01-26T01:15:55.818Z,27.83
2024-01-26T01:18:00.397Z,29.30
2024-01-26T01:20:06.106Z,28.90
2024-01-26T01:22:09.943Z,28.27
2024-01-26T01:24:13.157Z,27.63
2024-01-26T01:26:17.923Z,28.60
2024-01-26T01:28:22.219Z,27.23
2024-01-26T01:30:25.094Z,27.97
2024-01-26T01:32:28.052Z,26.17
2024-01-26T01:34:31.541Z,28.37
2024-01-26T01:36:34.610Z,26.60
2024-01-26T01:38:37.532Z,27.33
2024-01-26T01:40:40.504Z,27.93
2024-01-26T01:42:43.985Z,27.40
2024-01-26T01:44:49.046Z,27.77
2024-01-26T01:46:51.957Z,27.60
2024-01-26T01:48:55.419Z,27.67
2024-01-26T01:50:59.147Z,27.23
2024-01-26T01:53:04.262Z,29.07
2024-01-26T01:55:10.966Z,29.37
2024-01-26T01:57:15.288Z,29.30
2024-01-26T01:59:17.735Z,31.33
2024-01-26T02:01:22.055Z,29.97
2024-01-26T02:03:25.318Z,29.60
2024-01-26T02:05:28.386Z,27.23
2024-01-26T02:07:30.419Z,25.40
2024-01-26T02:09:33.737Z,27.73
2024-01-26T02:11:36.560Z,26.30
2024-01-26T02:13:39.096Z,25.77
2024-01-26T02:15:42.144Z,24.67
2024-01-26T02:17:46.621Z,25.50
2024-01-26T02:19:48.541Z,25.03
2024-01-26T02:21:51.435Z,26.13
2024-01-26T02:23:55.801Z,25.90
2024-01-26T02:25:58.711Z,26.67
2024-01-26T02:28:01.791Z,25.90
2024-01-26T02:30:06.383Z,26.50
2024-01-26T02:32:10.273Z,27.57
2024-01-26T02:34:14.051Z,28.07
2024-01-26T02:36:17.202Z,29.37
2024-01-26T02:38:20.535Z,29.53
2024-01-26T02:40:24.833Z,29.40
2024-01-26T02:42:27.948Z,27.43
2024-01-26T02:44:29.839Z,30.77
2024-01-26T02:46:32.751Z,30.27
2024-01-26T02:48:36.145Z,30.73
2024-01-26T02:50:39.333Z,31.43
2024-01-26T02:52:41.349Z,32.00
2024-01-26T02:54:44.122Z,30.27
2024-01-26T02:56:47.363Z,31.10
2024-01-26T02:58:50.385Z,30.60
2024-01-26T03:00:53.305Z,30.40
2024-01-26T03:02:56.152Z,30.57
2024-01-26T03:04:59.047Z,33.63
2024-01-26T03:07:02.098Z,33.10
2024-01-26T03:09:05.087Z,31.50
2024-01-26T03:11:08.477Z,31.17
2024-01-26T03:13:11.659Z,30.97
2024-01-26T03:15:14.596Z,30.30
2024-01-26T03:17:17.482Z,32.37
2024-01-26T03:19:20.557Z,31.67
2024-01-26T03:21:22.545Z,31.50
2024-01-26T03:23:25.398Z,31.43
2024-01-26T03:25:28.232Z,30.60
2024-01-26T03:27:30.340Z,31.03
2024-01-26T03:29:34.653Z,31.33
2024-01-26T03:31:37.501Z,30.83
2024-01-26T03:33:40.490Z,32.57
2024-01-26T03:35:43.538Z,31.53
2024-01-26T03:37:46.482Z,32.77
2024-01-26T03:39:49.415Z,31.30
2024-01-26T03:41:51.382Z,31.50
2024-01-26T03:43:54.335Z,31.23
2024-01-26T03:45:57.564Z,31.30
2024-01-26T03:48:00.498Z,31.97
2024-01-26T03:50:05.570Z,31.17
2024-01-26T03:52:08.808Z,32.03
2024-01-26T03:54:11.843Z,31.20
2024-01-26T03:56:14.935Z,31.23
2024-01-26T03:58:17.929Z,30.47
2024-01-26T04:00:21.108Z,30.47
2024-01-26T04:02:25.382Z,30.83
2024-01-26T04:04:28.597Z,29.67
2024-01-26T04:06:30.591Z,30.17
2024-01-26T04:08:33.801Z,29.50
2024-01-26T04:10:36.611Z,28.00
2024-01-26T04:12:39.665Z,27.63
2024-01-26T04:14:42.656Z,28.07
2024-01-26T04:16:45.477Z,28.90
2024-01-26T04:18:49.883Z,28.43
2024-01-26T04:20:53.105Z,28.70
2024-01-26T04:22:56.145Z,30.17
2024-01-26T04:24:59.031Z,28.33
2024-01-26T04:27:02.865Z,30.70
2024-01-26T04:29:05.746Z,30.60
2024-01-26T04:31:08.880Z,32.00
2024-01-26T04:33:10.805Z,31.63
2024-01-26T04:35:15.427Z,31.87
2024-01-26T04:37:18.788Z,34.83
2024-01-26T04:39:21.568Z,33.13
2024-01-26T04:41:23.422Z,34.30
2024-01-26T04:43:26.267Z,34.07
2024-01-26T04:45:29.153Z,35.90
2024-01-26T04:47:32.123Z,34.30
2024-01-26T04:49:35.169Z,35.03
2024-01-26T04:51:39.694Z,35.00
2024-01-26T04:53:42.819Z,34.70
2024-01-26T04:55:45.736Z,36.07
2024-01-26T04:57:47.664Z,35.03
2024-01-26T04:59:50.572Z,35.23
2024-01-26T05:01:53.483Z,36.40
2024-01-26T05:03:56.380Z,36.37
2024-01-26T05:05:58.404Z,35.10
2024-01-26T05:08:02.714Z,38.07
2024-01-26T05:10:06.476Z,35.57
2024-01-26T05:12:09.413Z,36.03
2024-01-26T05:14:12.310Z,35.43
2024-01-26T05:16:15.136Z,37.03
2024-01-26T05:18:18.143Z,39.63
2024-01-26T05:20:20.639Z,36.27
2024-01-26T05:22:23.443Z,38.30
2024-01-26T05:24:27.833Z,39.23
2024-01-26T05:26:30.722Z,40.27
2024-01-26T05:28:33.598Z,39.80
2024-01-26T05:30:36.493Z,40.63
2024-01-26T05:32:39.526Z,40.43
2024-01-26T05:34:42.853Z,40.77
2024-01-26T05:36:44.855Z,40.90
2024-01-26T05:38:49.413Z,41.43
2024-01-26T05:40:53.622Z,42.23
2024-01-26T05:42:56.931Z,42.20
2024-01-26T05:44:59.901Z,40.30
2024-01-26T05:47:02.898Z,41.80
2024-01-26T05:49:08.269Z,39.23
2024-01-26T05:51:13.866Z,40.33
2024-01-26T05:53:16.794Z,41.23
2024-01-26T05:55:19.618Z,40.80
2024-01-26T05:57:24.207Z,41.37
2024-01-26T05:59:27.395Z,40.40
2024-01-26T06:01:30.346Z,39.37
2024-01-26T06:03:33.308Z,39.83
2024-01-26T06:05:35.619Z,40.93
2024-01-26T06:07:38.548Z,38.97
2024-01-26T06:09:41.900Z,39.50
2024-01-26T06:11:45.015Z,39.77
2024-01-26T06:13:51.551Z,39.33
2024-01-26T06:15:55.984Z,40.23
2024-01-26T06:17:59.032Z,40.87
2024-01-26T06:20:04.300Z,40.47
2024-01-26T06:22:07.207Z,41.23
2024-01-26T06:24:09.160Z,40.00
2024-01-26T06:26:12.173Z,40.23
2024-01-26T06:28:15.004Z,40.10
2024-01-26T06:30:20.291Z,41.13
2024-01-26T06:32:23.083Z,42.10
2024-01-26T06:34:27.293Z,41.37
2024-01-26T06:36:30.425Z,44.43
2024-01-26T06:38:33.456Z,42.93
2024-01-26T06:40:35.361Z,44.53
2024-01-26T06:42:39.401Z,44.13
2024-01-26T06:44:42.323Z,43.13
2024-01-26T06:46:49.075Z,43.70
2024-01-26T06:48:52.759Z,43.33
2024-01-26T06:50:55.875Z,42.97
2024-01-26T06:52:58.783Z,43.27
2024-01-26T06:55:02.191Z,41.87
2024-01-26T06:57:06.009Z,40.87
2024-01-26T06:59:08.988Z,41.27
2024-01-26T07:01:12.215Z,39.03
2024-01-26T07:03:16.692Z,38.40
2024-01-26T07:05:19.650Z,36.17
2024-01-26T07:07:22.927Z,38.20
2024-01-26T07:09:26.117Z,35.90
2024-01-26T07:11:29.586Z,38.13
2024-01-26T07:13:32.793Z,36.13
2024-01-26T07:15:36.440Z,35.77
2024-01-26T07:17:39.461Z,33.73
2024-01-26T07:19:43.736Z,33.00
2024-01-26T07:21:46.498Z,31.90
2024-01-26T07:23:50.677Z,31.97
2024-01-26T07:25:53.718Z,30.70
2024-01-26T07:27:56.722Z,29.93
2024-01-26T07:29:59.659Z,31.00
2024-01-26T07:32:02.686Z,30.17
2024-01-26T07:34:06.118Z,28.57
2024-01-26T07:36:10.718Z,29.13
2024-01-26T07:38:13.612Z,26.87
2024-01-26T07:40:16.604Z,26.57
2024-01-26T07:42:21.418Z,27.80
2024-01-26T07:44:25.700Z,26.63
2024-01-26T07:46:29.097Z,27.43
2024-01-26T07:48:32.091Z,25.83
2024-01-26T07:50:35.015Z,26.17
2024-01-26T07:52:40.150Z,24.67
2024-01-26T07:54:42.998Z,24.77
2024-01-26T07:56:45.954Z,24.43
2024-01-26T07:58:49.036Z,23.63
2024-01-26T08:00:52.431Z,23.50
2024-01-26T08:02:55.898Z,23.17
2024-01-26T08:04:57.898Z,22.27
2024-01-26T08:07:01.012Z,22.23
2024-01-26T08:09:05.681Z,21.30
2024-01-26T08:11:10.192Z,20.93
2024-01-26T08:13:13.917Z,20.77
2024-01-26T08:15:19.117Z,19.50
2024-01-26T08:17:21.321Z,20.30
2024-01-26T08:19:26.442Z,18.27
2024-01-26T08:21:31.603Z,17.77
2024-01-26T08:23:34.546Z,18.50
2024-01-26T08:25:39.052Z,17.30
2024-01-26T08:27:42.196Z,18.80
2024-01-26T08:29:45.135Z,17.47
2024-01-26T08:31:47.974Z,17.33
2024-01-26T08:33:51.345Z,17.43
2024-01-26T08:35:54.411Z,16.80
2024-01-26T08:37:57.287Z,16.17
2024-01-26T08:40:00.177Z,16.43
2024-01-26T08:42:04.828Z,15.67
2024-01-26T08:44:08.399Z,14.57
2024-01-26T08:46:12.272Z,14.30
2024-01-26T08:48:15.733Z,14.10
2024-01-26T08:50:19.668Z,13.23
2024-01-26T08:52:22.929Z,12.87
2024-01-26T08:54:26.043Z,13.10
2024-01-26T08:56:28.845Z,12.30
2024-01-26T08:58:33.228Z,11.67
2024-01-26T09:00:36.637Z,10.73
2024-01-26T09:02:38.812Z,10.60
2024-01-26T09:04:41.761Z,10.30
2024-01-26T09:06:46.617Z,10.47
2024-01-26T09:08:51.758Z,10.27
2024-01-26T09:10:54.560Z,10.27
2024-01-26T09:12:57.653Z,10.40
2024-01-26T09:15:01.198Z,9.87
2024-01-26T09:17:04.700Z,10.17
2024-01-26T09:19:09.598Z,10.40
2024-01-26T09:21:13.008Z,9.47
2024-01-26T09:23:15.949Z,9.57
2024-01-26T09:25:18.960Z,10.53
2024-01-26T09:27:23.102Z,10.43
2024-01-26T09:29:27.325Z,9.50
2024-01-26T09:31:31.499Z,9.43
2024-01-26T09:33:36.441Z,8.80
2024-01-26T09:35:39.583Z,9.47
2024-01-26T09:37:42.632Z,7.90
2024-01-26T09:39:44.619Z,7.70
2024-01-26T09:41:47.571Z,7.33
2024-01-26T09:43:50.523Z,6.67
2024-01-26T09:45:54.252Z,6.70
2024-01-26T09:48:00.189Z,6.13
2024-01-26T09:50:04.691Z,5.90
2024-01-26T09:52:12.820Z,6.17
2024-01-26T09:54:17.504Z,6.13
2024-01-26T09:56:21.227Z,6.27
2024-01-26T09:58:23.167Z,6.67
2024-01-26T10:00:26.273Z,7.33
2024-01-26T10:02:29.193Z,7.43
2024-01-26T10:04:33.760Z,7.07
2024-01-26T10:06:36.881Z,7.68
2024-01-26T10:08:40.491Z,8.07
2024-01-26T10:10:43.417Z,7.53
2024-01-26T10:12:46.365Z,8.00
2024-01-26T10:14:50.454Z,7.87
2024-01-26T10:16:57.811Z,7.73
2024-01-26T10:19:00.899Z,7.37
2024-01-26T10:21:05.953Z,7.40
2024-01-26T10:23:09.195Z,7.80
2024-01-26T10:25:12.670Z,7.60
2024-01-26T10:27:15.671Z,7.83
2024-01-26T10:29:19.074Z,7.07
2024-01-26T10:31:22.200Z,6.83
2024-01-26T10:33:27.294Z,7.83
2024-01-26T10:35:30.739Z,6.90
2024-01-26T10:37:36.638Z,7.03
2024-01-26T10:39:41.686Z,6.97
2024-01-26T10:41:49.004Z,7.23
2024-01-26T10:43:56.205Z,8.30
2024-01-26T10:46:00.776Z,7.37
2024-01-26T10:48:03.773Z,7.30
2024-01-26T10:50:07.686Z,7.03
2024-01-26T10:52:11.863Z,6.80
2024-01-26T10:54:16.284Z,6.47
2024-01-26T10:56:19.208Z,6.17
2024-01-26T10:58:22.172Z,7.03
2024-01-26T11:00:25.566Z,6.27
2024-01-26T11:02:32.558Z,6.43
2024-01-26T11:04:36.207Z,6.50
2024-01-26T11:06:39.340Z,6.80
2024-01-26T11:08:42.848Z,7.63
2024-01-26T11:10:49.090Z,6.87
2024-01-26T11:13:02.364Z,7.43
2024-01-26T11:15:10.090Z,7.80
2024-01-26T11:17:13.680Z,8.20
2024-01-26T11:19:23.863Z,9.23
2024-01-26T11:21:27.076Z,9.37
2024-01-26T11:23:39.804Z,9.60
2024-01-26T11:25:44.568Z,9.57
2024-01-26T11:27:48.788Z,10.52
2024-01-26T11:29:51.859Z,10.68
2024-01-26T11:31:57.233Z,11.20
2024-01-26T11:34:00.204Z,11.90
2024-01-26T11:36:06.617Z,11.87
2024-01-26T11:38:10.747Z,12.53
2024-01-26T11:40:14.180Z,12.47
2024-01-26T11:42:26.550Z,12.13
2024-01-26T11:44:32.174Z,12.07
2024-01-26T11:46:36.756Z,11.97
2024-01-26T11:48:42.604Z,12.77
2024-01-26T11:50:47.350Z,12.30
2024-01-26T11:52:50.290Z,12.77
2024-01-26T11:54:53.068Z,12.68
2024-01-26T11:56:56.940Z,11.93
2024-01-26T11:59:00.301Z,13.33
2024-01-26T12:01:06.207Z,12.97
2024-01-26T12:03:10.690Z,12.68
2024-01-26T12:05:14.180Z,12.90
2024-01-26T12:07:17.360Z,12.43
2024-01-26T12:09:20.932Z,13.00
2024-01-26T12:11:24.157Z,12.50
2024-01-26T12:13:27.773Z,12.53
2024-01-26T12:15:32.134Z,13.47
2024-01-26T12:17:37.606Z,12.23
2024-01-26T12:19:40.764Z,11.90
2024-01-26T12:21:43.875Z,12.23
2024-01-26T12:23:50.890Z,11.47
2024-01-26T12:25:54.692Z,10.32
2024-01-26T12:27:57.189Z,11.07
2024-01-26T12:30:01.027Z,10.68
2024-01-26T12:32:07.442Z,10.05
2024-01-26T12:34:15.243Z,9.40
2024-01-26T12:36:18.972Z,9.25
2024-01-26T12:38:21.001Z,9.32
2024-01-26T12:40:23.838Z,8.68
2024-01-26T12:42:27.106Z,8.43
2024-01-26T12:44:30.133Z,8.15
2024-01-26T12:46:33.072Z,8.57
2024-01-26T12:48:36.244Z,8.70
2024-01-26T12:50:39.655Z,8.88
2024-01-26T12:52:42.794Z,8.52
2024-01-26T12:54:46.449Z,8.15
2024-01-26T12:56:49.546Z,8.90
2024-01-26T12:58:52.476Z,8.65
2024-01-26T13:00:57.675Z,8.35
2024-01-26T13:03:00.867Z,8.00
2024-01-26T13:05:03.865Z,7.60
2024-01-26T13:07:08.843Z,7.63
2024-01-26T13:09:12.370Z,8.35
2024-01-26T13:11:15.521Z,6.50
2024-01-26T13:13:18.424Z,2.80
2024-01-26T13:15:22.106Z,1.98
2024-01-26T13:17:26.942Z,1.42
2024-01-26T13:19:30.442Z,1.50
2024-01-26T13:21:33.635Z,1.77
2024-01-26T13:23:37.992Z,1.60
2024-01-26T13:25:40.053Z,1.50
2024-01-26T13:27:43.376Z,1.43
2024-01-26T13:29:46.271Z,1.98
2024-01-26T13:31:49.521Z,1.60
2024-01-26T13:33:52.542Z,1.70
2024-01-26T13:35:55.686Z,1.70
2024-01-26T13:37:58.567Z,1.77
2024-01-26T13:40:02.100Z,1.90
2024-01-26T13:42:05.637Z,1.77
2024-01-26T13:44:08.883Z,1.70
2024-01-26T13:46:12.339Z,1.60
2024-01-26T13:48:15.322Z,1.70
2024-01-26T13:50:18.438Z,1.50
2024-01-26T13:52:20.322Z,1.37
2024-01-26T13:54:23.635Z,1.90
2024-01-26T13:56:27.905Z,2.07
2024-01-26T13:58:29.936Z,1.33
2024-01-26T14:00:33.360Z,2.17
2024-01-26T14:02:36.847Z,1.83
2024-01-26T14:04:40.171Z,1.98
2024-01-26T14:06:43.772Z,1.88
2024-01-26T14:08:47.178Z,1.80
2024-01-26T14:10:50.381Z,1.65
2024-01-26T14:12:55.460Z,1.67
2024-01-26T14:14:58.632Z,1.77
2024-01-26T14:17:01.965Z,2.03
2024-01-26T14:19:04.883Z,1.60
2024-01-26T14:21:08.153Z,1.92
2024-01-26T14:23:11.529Z,1.75
2024-01-26T14:25:13.551Z,1.40
2024-01-26T14:27:16.450Z,1.58
2024-01-26T14:29:20.639Z,1.43
2024-01-26T14:31:25.173Z,1.20
2024-01-26T14:33:28.369Z,1.40
2024-01-26T14:35:30.724Z,1.40
2024-01-26T14:37:36.855Z,1.25
2024-01-26T14:39:41.422Z,1.33
2024-01-26T14:41:44.369Z,1.40
2024-01-26T14:43:46.224Z,1.40
2024-01-26T14:45:50.602Z,1.33
2024-01-26T14:47:53.591Z,1.02
2024-01-26T14:50:00.137Z,1.20
2024-01-26T14:52:03.865Z,1.40
2024-01-26T14:54:07.083Z,1.40
2024-01-26T14:56:10.169Z,1.50
2024-01-26T14:58:13.203Z,1.65
2024-01-26T15:00:17.077Z,1.40
2024-01-26T15:02:20.755Z,1.60
2024-01-26T15:04:24.168Z,1.38
2024-01-26T15:06:26.375Z,1.20
2024-01-26T15:08:29.337Z,1.77
2024-01-26T15:10:32.247Z,2.57
2024-01-26T15:12:34.101Z,1.27
2024-01-26T15:14:36.998Z,1.70
2024-01-26T15:16:41.116Z,1.80
2024-01-26T15:18:45.516Z,1.73
2024-01-26T15:20:47.649Z,1.43
2024-01-26T15:22:52.800Z,1.50
2024-01-26T15:24:57.488Z,1.50
2024-01-26T15:27:00.389Z,1.63
2024-01-26T15:29:03.418Z,1.30
2024-01-26T15:31:06.673Z,1.60
2024-01-26T15:33:09.836Z,1.57
2024-01-26T15:35:15.008Z,1.50
2024-01-26T15:37:17.853Z,2.10
2024-01-26T15:39:21.663Z,1.30
2024-01-26T15:41:24.947Z,1.20
2024-01-26T15:43:27.906Z,1.60
2024-01-26T15:45:31.398Z,1.57
2024-01-26T15:47:34.302Z,1.80
2024-01-26T15:49:37.377Z,1.80
2024-01-26T15:51:41.647Z,1.40
2024-01-26T15:53:46.126Z,1.53
2024-01-26T15:55:49.231Z,1.63
2024-01-26T15:57:52.430Z,2.00
2024-01-26T15:59:56.330Z,1.60
2024-01-26T16:02:01.544Z,2.17
2024-01-26T16:04:04.641Z,1.80
2024-01-26T16:06:08.057Z,1.60
2024-01-26T16:08:14.803Z,1.93
2024-01-26T16:10:18.332Z,1.40
2024-01-26T16:12:21.379Z,1.70
2024-01-26T16:14:24.561Z,2.30
2024-01-26T16:16:26.412Z,1.80
2024-01-26T16:18:29.450Z,1.70
2024-01-26T16:20:32.606Z,1.67
2024-01-26T16:22:34.471Z,2.00
2024-01-26T16:24:38.941Z,1.53
2024-01-26T16:26:41.758Z,1.53
2024-01-26T16:28:44.675Z,1.60
2024-01-26T16:30:47.747Z,2.00
2024-01-26T16:32:50.821Z,1.77
2024-01-26T16:34:53.730Z,1.80
2024-01-26T16:36:56.536Z,1.87
2024-01-26T16:38:58.567Z,1.83
2024-01-26T16:41:04.126Z,2.20
2024-01-26T16:43:07.184Z,1.80
2024-01-26T16:45:10.802Z,1.73
2024-01-26T16:47:14.157Z,2.03
2024-01-26T16:49:17.065Z,2.10
2024-01-26T16:51:21.361Z,2.73
2024-01-26T16:53:24.283Z,2.60
2024-01-26T16:55:28.574Z,2.13
2024-01-26T16:57:33.908Z,2.30
2024-01-26T16:59:36.799Z,2.20
2024-01-26T17:01:39.709Z,2.10
2024-01-26T17:03:44.141Z,2.50
2024-01-26T17:05:50.513Z,2.13
2024-01-26T17:07:53.379Z,2.10
2024-01-26T17:09:56.169Z,2.53
2024-01-26T17:11:59.027Z,2.20
2024-01-26T17:14:04.980Z,1.87
2024-01-26T17:16:09.330Z,2.20
2024-01-26T17:18:12.240Z,2.20
2024-01-26T17:20:15.156Z,2.20
2024-01-26T17:22:17.933Z,2.20
2024-01-26T17:24:21.046Z,2.00
2024-01-26T17:26:23.389Z,2.30
2024-01-26T17:28:26.213Z,2.17
2024-01-26T17:30:30.414Z,2.30
2024-01-26T17:32:35.700Z,2.50
2024-01-26T17:34:39.312Z,2.30
2024-01-26T17:36:42.530Z,2.07
2024-01-26T17:38:45.455Z,2.13
2024-01-26T17:40:48.414Z,1.97
2024-01-26T17:42:52.689Z,2.00
2024-01-26T17:44:56.977Z,2.07
2024-01-26T17:47:01.139Z,2.60
2024-01-26T17:49:04.261Z,2.20
2024-01-26T17:51:07.484Z,2.10
2024-01-26T17:53:10.271Z,2.33
2024-01-26T17:55:13.014Z,2.47
2024-01-26T17:57:16.218Z,2.73
2024-01-26T17:59:19.363Z,2.43
2024-01-26T18:01:22.245Z,2.33
2024-01-26T18:03:26.535Z,2.43
2024-01-26T18:05:29.398Z,2.77
2024-01-26T18:07:31.284Z,2.17
2024-01-26T18:09:35.089Z,2.37
2024-01-26T18:11:38.173Z,2.70
2024-01-26T18:13:41.041Z,2.40
2024-01-26T18:15:43.864Z,2.57
2024-01-26T18:17:46.937Z,2.50
2024-01-26T18:19:51.480Z,2.50
2024-01-26T18:21:55.685Z,2.40
2024-01-26T18:23:58.446Z,2.60
2024-01-26T18:26:01.379Z,2.17
2024-01-26T18:28:03.800Z,2.57
2024-01-26T18:30:08.162Z,2.00
2024-01-26T18:32:10.046Z,2.67
2024-01-26T18:34:12.936Z,2.40
2024-01-26T18:36:16.840Z,2.33
2024-01-26T18:38:21.810Z,2.70
2024-01-26T18:40:25.469Z,2.73
2024-01-26T18:42:28.333Z,2.63
2024-01-26T18:44:31.159Z,2.40
2024-01-26T18:46:34.440Z,2.73
2024-01-26T18:48:38.340Z,2.43
2024-01-26T18:50:41.253Z,2.37
2024-01-26T18:52:45.533Z,2.70
2024-01-26T18:54:48.420Z,2.20
2024-01-26T18:56:51.542Z,2.60
2024-01-26T18:58:54.986Z,2.50
2024-01-26T19:00:59.379Z,3.00
2024-01-26T19:03:02.712Z,3.33
2024-01-26T19:05:10.216Z,3.63
2024-01-26T19:07:13.592Z,3.40
2024-01-26T19:09:18.036Z,2.70
2024-01-26T19:11:24.082Z,3.07
2024-01-26T19:13:27.112Z,2.80
2024-01-26T19:15:30.362Z,2.73
2024-01-26T19:17:33.916Z,3.10
2024-01-26T19:19:39.552Z,2.73
2024-01-26T19:21:44.768Z,3.13
2024-01-26T19:23:47.886Z,2.60
2024-01-26T19:25:52.777Z,3.17
2024-01-26T19:27:55.637Z,2.63
2024-01-26T19:29:58.986Z,2.87
2024-01-26T19:32:02.474Z,2.67
2024-01-26T19:34:05.735Z,2.93
2024-01-26T19:36:10.058Z,3.00
2024-01-26T19:38:13.044Z,2.63
2024-01-26T19:40:16.258Z,3.20
2024-01-26T19:42:20.673Z,3.10
2024-01-26T19:44:23.985Z,2.80
2024-01-26T19:46:26.841Z,2.70
2024-01-26T19:48:29.699Z,2.80
2024-01-26T19:50:36.845Z,2.97
2024-01-26T19:52:44.199Z,3.17
2024-01-26T19:54:47.041Z,3.70
2024-01-26T19:56:51.251Z,3.50
2024-01-26T19:58:55.736Z,3.10
2024-01-26T20:00:59.157Z,2.97
2024-01-26T20:03:02.328Z,3.43
2024-01-26T20:05:05.993Z,3.27
2024-01-26T20:07:09.813Z,3.60
2024-01-26T20:09:13.094Z,3.20
2024-01-26T20:11:16.804Z,3.30
2024-01-26T20:13:21.224Z,2.97
2024-01-26T20:15:25.607Z,3.40
2024-01-26T20:17:28.552Z,3.07
2024-01-26T20:19:31.801Z,2.80
2024-01-26T20:21:47.804Z,2.90
2024-01-26T20:23:52.494Z,2.80
2024-01-26T20:25:57.449Z,3.20
2024-01-26T20:28:00.200Z,3.80
2024-01-26T20:30:03.554Z,3.07
2024-01-26T20:32:07.905Z,2.80
2024-01-26T20:34:11.179Z,3.30
2024-01-26T20:36:14.477Z,2.97
2024-01-26T20:38:17.631Z,2.63
2024-01-26T20:40:20.684Z,2.83
2024-01-26T20:42:26.571Z,2.90
2024-01-26T20:44:29.869Z,3.37
2024-01-26T20:46:34.311Z,3.67
2024-01-26T20:48:39.256Z,3.03
2024-01-26T20:50:42.280Z,3.23
2024-01-26T20:52:45.113Z,2.97
2024-01-26T20:54:47.978Z,2.73
2024-01-26T20:56:50.822Z,3.17
2024-01-26T20:58:54.336Z,2.97
2024-01-26T21:00:56.296Z,2.80
2024-01-26T21:02:59.459Z,3.47
2024-01-26T21:05:03.972Z,3.37
2024-01-26T21:07:07.050Z,2.90
2024-01-26T21:09:10.100Z,3.20
2024-01-26T21:11:14.583Z,3.30
2024-01-26T21:13:17.652Z,3.43
2024-01-26T21:15:20.564Z,3.40
2024-01-26T21:17:23.538Z,3.83
2024-01-26T21:19:26.612Z,3.70
2024-01-26T21:21:31.076Z,3.60
2024-01-26T21:23:34.246Z,2.77
2024-01-26T21:25:37.076Z,3.30
2024-01-26T21:27:40.049Z,3.07
2024-01-26T21:29:42.935Z,3.87
2024-01-26T21:31:51.211Z,2.87
2024-01-26T21:33:54.373Z,3.70
2024-01-26T21:35:57.340Z,3.30
2024-01-26T21:38:01.566Z,3.63
2024-01-26T21:40:04.021Z,3.20
2024-01-26T21:42:07.313Z,2.90
2024-01-26T21:44:10.235Z,2.80
2024-01-26T21:46:13.120Z,3.00
2024-01-26T21:48:18.053Z,3.77
2024-01-26T21:50:21.326Z,3.10
2024-01-26T21:52:24.655Z,3.30
2024-01-26T21:54:29.368Z,2.90
2024-01-26T21:56:33.819Z,3.10
2024-01-26T21:58:38.581Z,3.27
2024-01-26T22:00:42.051Z,3.50
2024-01-26T22:02:45.007Z,3.40
2024-01-26T22:04:47.880Z,3.60
2024-01-26T22:06:49.995Z,3.10
2024-01-26T22:08:56.836Z,3.10
2024-01-26T22:11:01.086Z,3.10
2024-01-26T22:13:04.063Z,2.87
2024-01-26T22:15:07.878Z,3.07
2024-01-26T22:17:10.901Z,3.27
2024-01-26T22:19:14.029Z,3.27
2024-01-26T22:21:17.280Z,3.07
2024-01-26T22:23:20.156Z,3.03
2024-01-26T22:25:27.525Z,3.27
2024-01-26T22:27:31.007Z,3.80
2024-01-26T22:29:34.190Z,2.87
2024-01-26T22:31:37.202Z,2.90
2024-01-26T22:33:41.145Z,2.60
2024-01-26T22:35:46.318Z,2.57
2024-01-26T22:37:49.803Z,2.47
2024-01-26T22:39:52.641Z,2.37
2024-01-26T22:41:56.452Z,2.90
2024-01-26T22:44:00.607Z,2.70
2024-01-26T22:46:05.355Z,2.63
2024-01-26T22:48:09.217Z,2.60
2024-01-26T22:50:12.563Z,2.77
2024-01-26T22:52:15.620Z,2.50
2024-01-26T22:54:18.815Z,3.00
2024-01-26T22:56:21.625Z,2.97
2024-01-26T22:58:23.474Z,2.90
2024-01-26T23:00:28.824Z,2.47
2024-01-26T23:02:33.625Z,2.43
2024-01-26T23:04:36.621Z,2.40
2024-01-26T23:06:39.716Z,3.17
2024-01-26T23:08:44.495Z,2.60
2024-01-26T23:10:47.363Z,2.70
2024-01-26T23:12:50.505Z,2.83
2024-01-26T23:14:53.487Z,3.03
2024-01-26T23:16:57.662Z,2.97
2024-01-26T23:19:00.624Z,3.50
2024-01-26T23:21:04.016Z,3.43
2024-01-26T23:23:05.940Z,3.87
2024-01-26T23:25:10.630Z,3.43
2024-01-26T23:27:14.282Z,2.67
2024-01-26T23:29:20.012Z,3.70
2024-01-26T23:31:22.953Z,3.70
2024-01-26T23:33:27.286Z,3.60
2024-01-26T23:35:30.151Z,4.53
2024-01-26T23:37:32.989Z,4.00
2024-01-26T23:39:36.066Z,2.67
2024-01-26T23:41:39.032Z,3.03
2024-01-26T23:43:41.889Z,2.93
2024-01-26T23:45:44.745Z,3.13
2024-01-26T23:47:48.007Z,3.73
2024-01-26T23:49:53.160Z,2.60
2024-01-26T23:51:56.405Z,3.20
2024-01-26T23:53:59.655Z,2.90
2024-01-26T23:56:02.989Z,2.87
2024-01-26T23:58:06.354Z,3.23
